Time;durP1;ratioP1;P1;durP2;ratioP2;P2;SDS_P1;SDS_P2;PMS_P1;PMS_P2;Temp;Humidity;BMP_temperature;BMP_pressure;BME280_temperature;BME280_humidity;BME280_pressure;Samples;Min_cycle;Max_cycle;Signal;HPM_P1;HPM_P2
2022/08/20 00:00:13;;;;;;;;;;;24.00;65.80;;;;;;5116009;28;19908;-74
2022/08/20 00:02:47;;;;;;;;;;;24.00;65.80;;;;;;5115977;28;19908;-75
2022/08/20 00:05:14;;;;;;;;;;;24.00;65.80;;;;;;5114754;28;19914;-73
2022/08/20 00:07:39;;;;;;;;;;;24.00;65.80;;;;;;5116222;28;19926;-73
2022/08/20 00:10:06;;;;;;;;;;;24.00;65.90;;;;;;5114820;28;19998;-74
2022/08/20 00:12:33;;;;;;;;;;;24.00;66.10;;;;;;5115969;28;19908;-74
2022/08/20 00:14:58;;;;;;;;;;;24.00;66.10;;;;;;5115821;28;19912;-74
2022/08/20 00:17:24;;;;;;;;;;;24.00;65.60;;;;;;5114782;28;19912;-74
2022/08/20 00:19:49;;;;;;;;;;;24.00;66.10;;;;;;5115825;28;19962;-74
2022/08/20 00:22:15;;;;;;;;;;;24.00;66.00;;;;;;5116184;28;19915;-74
2022/08/20 00:24:41;;;;;;;;;;;24.00;66.00;;;;;;5115594;28;19914;-74
2022/08/20 00:27:06;;;;;;;;;;;24.00;66.10;;;;;;5115469;28;19908;-74
2022/08/20 00:29:32;;;;;;;;;;;24.00;66.10;;;;;;5116130;28;19908;-74
2022/08/20 00:31:57;;;;;;;;;;;24.10;66.10;;;;;;5115480;28;19914;-74
2022/08/20 00:34:23;;;;;;;;;;;24.10;66.10;;;;;;5115887;28;19912;-75
2022/08/20 00:36:48;;;;;;;;;;;24.10;66.30;;;;;;5115497;28;20435;-74
2022/08/20 00:39:14;;;;;;;;;;;24.10;65.90;;;;;;5114157;28;20049;-73
2022/08/20 00:41:39;;;;;;;;;;;24.10;65.90;;;;;;5115794;28;19914;-73
2022/08/20 00:44:16;;;;;;;;;;;24.20;66.00;;;;;;5115202;28;20286;-74
2022/08/20 00:46:42;;;;;;;;;;;24.10;66.00;;;;;;5115303;28;19915;-74
2022/08/20 00:49:11;;;;;;;;;;;24.10;66.10;;;;;;5115263;28;19908;-74
2022/08/20 00:51:40;;;;;;;;;;;24.10;65.90;;;;;;5115242;28;19961;-74
2022/08/20 00:54:05;;;;;;;;;;;24.10;65.90;;;;;;5115189;28;20354;-74
2022/08/20 00:56:32;;;;;;;;;;;24.10;66.10;;;;;;5115226;28;19919;-74
2022/08/20 00:58:58;;;;;;;;;;;24.10;66.00;;;;;;5115144;28;19919;-74
2022/08/20 01:01:24;;;;;;;;;;;24.10;66.10;;;;;;5113389;28;19973;-73
2022/08/20 01:03:50;;;;;;;;;;;24.20;66.20;;;;;;5115016;27;20429;-73
2022/08/20 01:06:16;;;;;;;;;;;24.20;66.00;;;;;;5114917;28;19947;-74
2022/08/20 01:08:42;;;;;;;;;;;24.20;65.90;;;;;;5114875;28;19959;-74
2022/08/20 01:11:16;;;;;;;;;;;24.20;66.00;;;;;;5115000;28;19942;-74
2022/08/20 01:13:42;;;;;;;;;;;24.20;65.90;;;;;;5114929;28;20418;-74
2022/08/20 01:16:13;;;;;;;;;;;24.20;66.00;;;;;;5114228;28;19962;-74
2022/08/20 01:18:39;;;;;;;;;;;24.20;66.00;;;;;;5114908;28;19918;-74
2022/08/20 01:21:05;;;;;;;;;;;24.20;66.00;;;;;;5114874;28;20382;-74
2022/08/20 01:23:50;;;;;;;;;;;24.20;66.00;;;;;;5114575;28;19912;-74
2022/08/20 01:26:16;;;;;;;;;;;24.20;66.00;;;;;;5114478;28;19950;-74
2022/08/20 01:28:53;;;;;;;;;;;24.20;66.50;;;;;;5114397;28;20305;-74
2022/08/20 01:31:21;;;;;;;;;;;24.20;65.90;;;;;;5114953;28;19915;-74
2022/08/20 01:33:46;;;;;;;;;;;24.20;66.00;;;;;;5114603;28;19907;-74
2022/08/20 01:36:12;;;;;;;;;;;24.20;65.90;;;;;;5114552;28;19915;-74
2022/08/20 01:38:38;;;;;;;;;;;24.20;65.80;;;;;;5114686;28;20404;-74
2022/08/20 01:41:11;;;;;;;;;;;24.20;65.80;;;;;;5114571;28;19943;-74
2022/08/20 01:43:37;;;;;;;;;;;24.20;65.90;;;;;;5113759;28;19908;-74
2022/08/20 01:46:03;;;;;;;;;;;24.20;65.90;;;;;;5114481;28;20254;-74
2022/08/20 01:48:29;;;;;;;;;;;24.20;65.80;;;;;;5114724;28;19908;-74
2022/08/20 01:51:00;;;;;;;;;;;24.20;65.80;;;;;;5114533;28;19942;-74
2022/08/20 01:53:32;;;;;;;;;;;24.10;66.00;;;;;;5114529;28;20358;-74
2022/08/20 01:55:59;;;;;;;;;;;24.10;66.00;;;;;;5114886;28;19911;-73
2022/08/20 01:58:26;;;;;;;;;;;24.10;66.10;;;;;;5114396;28;19911;-74
2022/08/20 02:00:52;;;;;;;;;;;24.10;66.10;;;;;;5114509;28;19908;-74
2022/08/20 02:03:17;;;;;;;;;;;24.00;66.20;;;;;;5114162;28;20373;-74
2022/08/20 02:05:43;;;;;;;;;;;24.00;66.20;;;;;;5114246;28;20357;-74
2022/08/20 02:08:09;;;;;;;;;;;24.00;66.30;;;;;;5114069;28;19936;-77
2022/08/20 02:10:35;;;;;;;;;;;24.00;66.30;;;;;;5114309;28;19908;-74
2022/08/20 02:13:01;;;;;;;;;;;24.00;66.40;;;;;;5114261;28;19912;-74
2022/08/20 02:15:27;;;;;;;;;;;24.00;66.40;;;;;;5114135;28;19912;-74
2022/08/20 02:17:52;;;;;;;;;;;24.00;66.50;;;;;;5114028;28;19911;-74
2022/08/20 02:20:22;;;;;;;;;;;23.90;66.40;;;;;;5114081;28;19914;-74
2022/08/20 02:22:55;;;;;;;;;;;23.90;66.50;;;;;;5114232;28;19915;-74
2022/08/20 02:25:22;;;;;;;;;;;23.90;66.60;;;;;;5114631;28;19956;-74
2022/08/20 02:27:49;;;;;;;;;;;23.90;66.70;;;;;;5115704;28;19950;-74
2022/08/20 02:30:18;;;;;;;;;;;23.90;66.70;;;;;;5117970;28;20358;-73
2022/08/20 02:32:44;;;;;;;;;;;23.90;66.70;;;;;;5117866;28;19908;-74
2022/08/20 02:35:12;;;;;;;;;;;23.90;66.70;;;;;;5117827;28;20349;-74
2022/08/20 02:37:38;;;;;;;;;;;23.90;67.00;;;;;;5117916;28;19957;-74
2022/08/20 02:40:06;;;;;;;;;;;23.90;66.80;;;;;;5118020;28;20014;-74
2022/08/20 02:42:32;;;;;;;;;;;23.90;66.80;;;;;;5117493;28;19908;-74
2022/08/20 02:44:58;;;;;;;;;;;23.90;66.70;;;;;;5118043;28;19908;-74
2022/08/20 02:47:26;;;;;;;;;;;24.00;66.80;;;;;;5117485;28;20327;-74
2022/08/20 02:49:53;;;;;;;;;;;24.00;66.70;;;;;;5116337;28;19960;-74
2022/08/20 02:52:18;;;;;;;;;;;24.00;66.80;;;;;;5117651;28;20003;-74
2022/08/20 02:54:44;;;;;;;;;;;24.00;66.70;;;;;;5117504;28;19939;-74
2022/08/20 02:57:14;;;;;;;;;;;24.00;66.70;;;;;;5117405;28;20138;-74
2022/08/20 02:59:39;;;;;;;;;;;24.00;66.90;;;;;;5116476;28;20429;-74
2022/08/20 03:02:05;;;;;;;;;;;24.00;66.90;;;;;;5117209;28;20003;-74
2022/08/20 03:04:30;;;;;;;;;;;24.00;66.70;;;;;;5116100;28;19918;-74
2022/08/20 03:06:56;;;;;;;;;;;24.00;66.60;;;;;;5117793;28;20411;-74
2022/08/20 03:09:22;;;;;;;;;;;24.00;66.60;;;;;;5115941;28;19945;-74
2022/08/20 03:11:48;;;;;;;;;;;24.00;66.60;;;;;;5117315;28;19908;-74
2022/08/20 03:14:13;;;;;;;;;;;24.00;66.80;;;;;;5117345;28;20281;-74
2022/08/20 03:16:39;;;;;;;;;;;23.90;66.60;;;;;;5116744;28;20384;-74
2022/08/20 03:19:04;;;;;;;;;;;23.90;66.70;;;;;;5117113;28;20387;-75
2022/08/20 03:21:30;;;;;;;;;;;24.00;66.70;;;;;;5116849;28;19912;-74
2022/08/20 03:23:56;;;;;;;;;;;23.90;66.70;;;;;;5115683;28;20435;-74
2022/08/20 03:26:22;;;;;;;;;;;23.90;66.60;;;;;;5116174;28;19913;-74
2022/08/20 03:28:47;;;;;;;;;;;23.90;66.70;;;;;;5116893;28;20268;-74
2022/08/20 03:31:14;;;;;;;;;;;23.90;66.80;;;;;;5115576;28;19953;-75
2022/08/20 03:33:39;;;;;;;;;;;23.90;66.90;;;;;;5116010;28;19908;-74
2022/08/20 03:36:05;;;;;;;;;;;23.80;66.80;;;;;;5117118;28;19938;-74
2022/08/20 03:38:31;;;;;;;;;;;23.80;66.70;;;;;;5115620;28;20423;-74
2022/08/20 03:40:56;;;;;;;;;;;23.80;66.70;;;;;;5116436;28;19908;-73
2022/08/20 03:43:23;;;;;;;;;;;23.80;66.90;;;;;;5116426;28;19912;-75
2022/08/20 03:45:48;;;;;;;;;;;23.70;66.90;;;;;;5116261;28;19908;-75
2022/08/20 03:48:17;;;;;;;;;;;23.70;67.00;;;;;;5116597;28;19998;-74
2022/08/20 03:50:42;;;;;;;;;;;23.80;67.10;;;;;;5116743;28;19908;-74
2022/08/20 03:53:09;;;;;;;;;;;23.70;66.90;;;;;;5116773;28;19915;-74
2022/08/20 03:55:35;;;;;;;;;;;23.70;67.00;;;;;;5116017;28;20362;-74
2022/08/20 03:58:02;;;;;;;;;;;23.70;67.00;;;;;;5116054;28;19916;-74
2022/08/20 04:00:28;;;;;;;;;;;23.70;67.00;;;;;;5116008;28;19915;-74
2022/08/20 04:02:55;;;;;;;;;;;23.70;67.00;;;;;;5116607;28;19915;-74
2022/08/20 04:05:22;;;;;;;;;;;23.70;67.30;;;;;;5114787;28;19999;-74
2022/08/20 04:07:48;;;;;;;;;;;23.70;67.10;;;;;;5115894;28;20002;-75
2022/08/20 04:10:13;;;;;;;;;;;23.80;67.10;;;;;;5116356;28;20329;-75
2022/08/20 04:12:39;;;;;;;;;;;23.80;66.90;;;;;;5115925;28;19908;-74
2022/08/20 04:15:13;;;;;;;;;;;23.80;67.00;;;;;;5115803;28;20269;-74
2022/08/20 04:17:40;;;;;;;;;;;23.90;67.00;;;;;;5115970;28;19919;-74
2022/08/20 04:20:07;;;;;;;;;;;23.80;67.10;;;;;;5114547;28;19908;-74
2022/08/20 04:22:33;;;;;;;;;;;23.90;67.00;;;;;;5114746;28;20415;-74
2022/08/20 04:24:58;;;;;;;;;;;23.90;67.00;;;;;;5115826;28;19912;-75
2022/08/20 04:27:24;;;;;;;;;;;23.90;67.00;;;;;;5115664;28;19908;-73
2022/08/20 04:29:49;;;;;;;;;;;23.90;67.00;;;;;;5115427;28;19908;-74
2022/08/20 04:32:15;;;;;;;;;;;23.80;66.90;;;;;;5115633;28;20380;-74
2022/08/20 04:34:40;;;;;;;;;;;23.80;67.10;;;;;;5115653;28;20319;-73
2022/08/20 04:37:06;;;;;;;;;;;23.80;67.10;;;;;;5115222;28;19919;-74
2022/08/20 04:39:32;;;;;;;;;;;23.80;67.10;;;;;;5115684;28;19911;-74
2022/08/20 04:41:57;;;;;;;;;;;23.90;67.10;;;;;;5115259;28;19908;-74
2022/08/20 04:44:23;;;;;;;;;;;23.90;67.00;;;;;;5115179;28;20281;-74
2022/08/20 04:46:49;;;;;;;;;;;23.90;67.10;;;;;;5115617;28;20253;-75
2022/08/20 04:49:14;;;;;;;;;;;23.90;67.10;;;;;;5115503;28;19908;-75
2022/08/20 04:51:40;;;;;;;;;;;23.90;67.00;;;;;;5114713;28;19912;-75
2022/08/20 04:54:05;;;;;;;;;;;24.00;67.00;;;;;;5115118;28;20008;-74
2022/08/20 04:56:36;;;;;;;;;;;24.00;67.00;;;;;;5115058;28;19919;-74
2022/08/20 04:59:02;;;;;;;;;;;24.00;67.10;;;;;;5114890;28;19919;-78
2022/08/20 05:01:28;;;;;;;;;;;24.00;67.00;;;;;;5115145;27;19908;-74
2022/08/20 05:03:54;;;;;;;;;;;23.90;67.10;;;;;;5115113;28;20409;-74
2022/08/20 05:06:20;;;;;;;;;;;23.90;67.10;;;;;;5115475;28;19961;-74
2022/08/20 05:08:46;;;;;;;;;;;23.90;67.20;;;;;;5114923;28;19973;-74
2022/08/20 05:11:13;;;;;;;;;;;23.90;67.30;;;;;;5114834;28;19908;-74
2022/08/20 05:13:39;;;;;;;;;;;23.90;67.30;;;;;;5113663;28;20368;-74
2022/08/20 05:16:04;;;;;;;;;;;23.90;67.50;;;;;;5115131;28;19916;-74
2022/08/20 05:18:32;;;;;;;;;;;23.90;67.50;;;;;;5115002;28;20368;-74
2022/08/20 05:21:03;;;;;;;;;;;23.90;67.40;;;;;;5114721;28;19946;-74
2022/08/20 05:23:28;;;;;;;;;;;23.90;67.60;;;;;;5113302;28;19908;-75
2022/08/20 05:25:55;;;;;;;;;;;23.90;67.50;;;;;;5114666;28;19915;-75
2022/08/20 05:28:24;;;;;;;;;;;24.00;67.50;;;;;;5113336;28;19992;-74
2022/08/20 05:30:51;;;;;;;;;;;24.00;67.50;;;;;;5113349;28;19985;-73
2022/08/20 05:33:19;;;;;;;;;;;24.00;67.40;;;;;;5114828;28;20251;-74
2022/08/20 05:35:46;;;;;;;;;;;24.10;67.50;;;;;;5113251;28;19916;-74
2022/08/20 05:38:13;;;;;;;;;;;24.10;67.20;;;;;;5113089;28;20377;-75
2022/08/20 05:40:40;;;;;;;;;;;24.10;67.10;;;;;;5114531;28;19908;-75
2022/08/20 05:43:06;;;;;;;;;;;24.10;67.30;;;;;;5114817;28;19953;-74
2022/08/20 05:45:32;;;;;;;;;;;24.10;67.50;;;;;;5114803;28;19908;-75
2022/08/20 05:47:58;;;;;;;;;;;24.10;67.40;;;;;;5114170;28;19908;-75
2022/08/20 05:50:24;;;;;;;;;;;24.20;67.60;;;;;;5114099;28;20411;-75
2022/08/20 05:52:50;;;;;;;;;;;24.20;67.40;;;;;;5114159;28;19912;-75
2022/08/20 05:55:15;;;;;;;;;;;24.30;67.40;;;;;;5114079;28;19922;-75
2022/08/20 05:57:41;;;;;;;;;;;24.40;67.90;;;;;;5114631;28;19911;-75
2022/08/20 06:00:09;;;;;;;;;;;24.40;67.20;;;;;;5114546;28;20365;-75
2022/08/20 06:05:18;;;;;;;;;;;24.60;67.10;;;;;;5118470;28;19953;-75
2022/08/20 06:07:44;;;;;;;;;;;24.60;67.00;;;;;;5117601;28;19920;-74
2022/08/20 06:10:12;;;;;;;;;;;24.60;67.00;;;;;;5117441;28;20137;-74
2022/08/20 06:12:37;;;;;;;;;;;24.70;67.10;;;;;;5118096;28;19911;-74
2022/08/20 06:15:04;;;;;;;;;;;24.70;67.00;;;;;;5117099;28;19939;-75
2022/08/20 06:17:32;;;;;;;;;;;24.70;67.00;;;;;;5118078;28;19912;-75
2022/08/20 06:20:00;;;;;;;;;;;24.70;67.00;;;;;;5118175;28;20399;-75
2022/08/20 06:22:26;;;;;;;;;;;24.70;66.90;;;;;;5118064;28;19912;-75
2022/08/20 06:24:51;;;;;;;;;;;24.70;66.70;;;;;;5117844;28;19908;-75
2022/08/20 06:27:17;;;;;;;;;;;24.70;66.90;;;;;;5117714;28;19915;-74
2022/08/20 06:29:42;;;;;;;;;;;24.70;67.10;;;;;;5117904;28;20239;-75
2022/08/20 06:32:08;;;;;;;;;;;24.70;67.10;;;;;;5116617;28;19999;-74
2022/08/20 06:34:33;;;;;;;;;;;24.80;67.10;;;;;;5117577;28;20007;-75
2022/08/20 06:36:59;;;;;;;;;;;24.70;67.00;;;;;;5118185;28;19927;-74
2022/08/20 06:39:26;;;;;;;;;;;24.70;67.10;;;;;;5117720;28;19956;-74
2022/08/20 06:41:51;;;;;;;;;;;24.70;67.10;;;;;;5118028;28;19908;-74
2022/08/20 06:44:18;;;;;;;;;;;24.70;67.20;;;;;;5117491;28;19930;-74
2022/08/20 06:46:44;;;;;;;;;;;24.70;67.30;;;;;;5116310;28;19973;-74
2022/08/20 06:49:10;;;;;;;;;;;24.70;67.30;;;;;;5117411;28;20349;-75
2022/08/20 06:51:38;;;;;;;;;;;24.70;67.40;;;;;;5115986;28;20250;-74
2022/08/20 06:54:04;;;;;;;;;;;24.70;67.30;;;;;;5117626;28;19908;-74
2022/08/20 06:56:30;;;;;;;;;;;24.80;67.40;;;;;;5117273;28;19911;-74
2022/08/20 06:58:56;;;;;;;;;;;24.80;67.40;;;;;;5117569;28;19911;-74
2022/08/20 07:01:21;;;;;;;;;;;24.80;67.30;;;;;;5117095;28;19977;-75
2022/08/20 07:03:48;;;;;;;;;;;24.80;67.40;;;;;;5117280;28;20353;-75
2022/08/20 07:06:14;;;;;;;;;;;24.80;67.40;;;;;;5117215;28;19919;-75
2022/08/20 07:08:41;;;;;;;;;;;24.90;67.40;;;;;;5116950;28;20267;-75
2022/08/20 07:11:06;;;;;;;;;;;24.80;67.40;;;;;;5117064;28;19915;-74
2022/08/20 07:13:32;;;;;;;;;;;24.90;67.60;;;;;;5116362;28;19908;-74
2022/08/20 07:15:57;;;;;;;;;;;24.80;67.60;;;;;;5116717;28;19958;-75
2022/08/20 07:18:23;;;;;;;;;;;24.80;67.40;;;;;;5116622;28;19912;-74
2022/08/20 07:20:49;;;;;;;;;;;24.80;67.40;;;;;;5117184;28;20019;-73
2022/08/20 07:23:14;;;;;;;;;;;24.90;67.20;;;;;;5116641;28;19908;-74
2022/08/20 07:25:41;;;;;;;;;;;24.80;67.60;;;;;;5116724;28;20011;-75
2022/08/20 07:28:10;;;;;;;;;;;24.80;67.70;;;;;;5115413;28;19939;-74
2022/08/20 07:33:20;;;;;;;;;;;24.70;67.90;;;;;;5116848;28;19919;-75
2022/08/20 07:35:47;;;;;;;;;;;24.70;67.70;;;;;;5116893;28;19916;-74
2022/08/20 07:38:16;;;;;;;;;;;24.70;68.00;;;;;;5116161;28;19961;-75
2022/08/20 07:40:42;;;;;;;;;;;24.70;68.00;;;;;;5116469;28;20351;-73
2022/08/20 07:43:09;;;;;;;;;;;24.70;68.20;;;;;;5116459;28;19908;-74
2022/08/20 07:45:36;;;;;;;;;;;24.70;68.30;;;;;;5114835;28;19947;-75
2022/08/20 07:48:06;;;;;;;;;;;24.60;68.20;;;;;;5116378;28;19908;-74
2022/08/20 07:50:32;;;;;;;;;;;24.60;68.30;;;;;;5116330;28;20006;-75
2022/08/20 07:52:59;;;;;;;;;;;24.60;68.50;;;;;;5116201;28;19958;-74
2022/08/20 07:55:24;;;;;;;;;;;24.70;68.60;;;;;;5116175;28;19957;-74
2022/08/20 07:57:50;;;;;;;;;;;24.60;68.60;;;;;;5115922;28;19919;-75
2022/08/20 08:00:17;;;;;;;;;;;24.60;69.30;;;;;;5116242;28;19963;-75
2022/08/20 08:02:42;;;;;;;;;;;24.60;68.70;;;;;;5114830;28;20346;-75
2022/08/20 08:05:08;;;;;;;;;;;24.70;68.60;;;;;;5115949;28;20006;-75
2022/08/20 08:07:34;;;;;;;;;;;24.70;68.60;;;;;;5115901;28;19912;-75
2022/08/20 08:10:00;;;;;;;;;;;24.70;68.70;;;;;;5116045;28;19968;-75
2022/08/20 08:12:31;;;;;;;;;;;24.70;68.70;;;;;;5116085;28;19915;-75
2022/08/20 08:14:57;;;;;;;;;;;24.80;69.30;;;;;;5116211;28;19908;-75
2022/08/20 08:17:23;;;;;;;;;;;25.00;68.70;;;;;;5115569;28;20021;-74
2022/08/20 08:19:49;;;;;;;;;;;25.10;68.70;;;;;;5114798;28;20322;-75
2022/08/20 08:22:16;;;;;;;;;;;25.20;68.50;;;;;;5115867;28;20357;-75
2022/08/20 08:24:43;;;;;;;;;;;25.40;68.40;;;;;;5114676;28;20353;-74
2022/08/20 08:27:09;;;;;;;;;;;25.50;68.00;;;;;;5115141;28;19908;-75
2022/08/20 08:29:35;;;;;;;;;;;25.60;67.90;;;;;;5113896;28;19962;-73
2022/08/20 08:32:01;;;;;;;;;;;25.70;67.80;;;;;;5115711;28;20405;-74
2022/08/20 08:34:27;;;;;;;;;;;25.80;67.60;;;;;;5115266;28;20003;-75
2022/08/20 08:36:53;;;;;;;;;;;25.90;67.50;;;;;;5114125;28;19916;-74
2022/08/20 08:39:19;;;;;;;;;;;26.00;67.40;;;;;;5113590;28;19911;-74
2022/08/20 08:41:48;;;;;;;;;;;26.00;67.20;;;;;;5115203;28;20002;-73
2022/08/20 08:44:21;;;;;;;;;;;26.10;67.10;;;;;;5115075;28;19908;-74
2022/08/20 08:46:48;;;;;;;;;;;26.20;66.90;;;;;;5115639;28;19958;-74
2022/08/20 08:49:16;;;;;;;;;;;26.20;66.80;;;;;;5115256;27;20298;-74
2022/08/20 08:51:45;;;;;;;;;;;26.30;66.80;;;;;;5114918;28;20241;-75
2022/08/20 08:54:15;;;;;;;;;;;26.30;66.60;;;;;;5114970;28;20388;-74
2022/08/20 08:56:42;;;;;;;;;;;26.40;66.50;;;;;;5114910;28;19922;-75
2022/08/20 08:59:07;;;;;;;;;;;26.50;66.50;;;;;;5114862;28;19957;-74
2022/08/20 09:01:38;;;;;;;;;;;26.50;66.50;;;;;;5113401;28;19912;-76
2022/08/20 09:04:04;;;;;;;;;;;26.50;66.40;;;;;;5114599;28;20254;-76
2022/08/20 09:06:30;;;;;;;;;;;26.60;66.30;;;;;;5114635;28;19907;-74
2022/08/20 09:08:58;;;;;;;;;;;26.70;66.20;;;;;;5114606;28;20022;-74
2022/08/20 09:11:26;;;;;;;;;;;26.80;66.00;;;;;;5114619;28;19962;-75
2022/08/20 09:13:55;;;;;;;;;;;26.80;65.80;;;;;;5113955;28;20342;-74
2022/08/20 09:16:22;;;;;;;;;;;26.90;65.70;;;;;;5113425;28;19960;-75
2022/08/20 09:18:48;;;;;;;;;;;27.00;65.60;;;;;;5114584;28;20354;-75
2022/08/20 09:21:13;;;;;;;;;;;27.10;65.50;;;;;;5114440;28;20441;-76
2022/08/20 09:23:39;;;;;;;;;;;27.10;65.40;;;;;;5113154;28;19953;-75
2022/08/20 09:26:05;;;;;;;;;;;27.20;65.30;;;;;;5114464;28;20309;-75
2022/08/20 09:28:31;;;;;;;;;;;27.20;65.20;;;;;;5113248;28;19912;-74
2022/08/20 09:30:56;;;;;;;;;;;27.20;65.20;;;;;;5115194;28;20295;-74
2022/08/20 09:33:22;;;;;;;;;;;27.30;65.70;;;;;;5113607;28;19908;-74
2022/08/20 09:35:47;;;;;;;;;;;27.30;65.00;;;;;;5114089;28;19962;-74
2022/08/20 09:38:13;;;;;;;;;;;27.40;64.90;;;;;;5114576;28;20011;-74
2022/08/20 09:40:38;;;;;;;;;;;27.40;64.90;;;;;;5113140;28;20355;-75
2022/08/20 09:43:05;;;;;;;;;;;27.40;64.80;;;;;;5114667;28;19912;-75
2022/08/20 09:45:30;;;;;;;;;;;27.40;64.80;;;;;;5114092;28;19912;-75
2022/08/20 09:47:56;;;;;;;;;;;27.50;64.80;;;;;;5114512;28;20242;-75
2022/08/20 09:50:22;;;;;;;;;;;27.50;64.70;;;;;;5114293;28;20306;-76
2022/08/20 09:52:49;;;;;;;;;;;27.50;64.60;;;;;;5113115;28;19961;-76
2022/08/20 09:55:17;;;;;;;;;;;27.40;64.60;;;;;;5112883;28;19911;-74
2022/08/20 09:57:43;;;;;;;;;;;27.40;64.70;;;;;;5114887;28;19980;-75
2022/08/20 10:00:12;;;;;;;;;;;27.40;64.70;;;;;;5114053;28;20358;-75
2022/08/20 10:02:38;;;;;;;;;;;27.40;64.70;;;;;;5114038;28;19965;-74
2022/08/20 10:05:05;;;;;;;;;;;27.30;64.70;;;;;;5114152;28;19960;-76
2022/08/20 10:07:30;;;;;;;;;;;27.40;64.80;;;;;;5114221;28;20281;-75
2022/08/20 10:09:56;;;;;;;;;;;27.40;64.80;;;;;;5112973;28;19908;-75
2022/08/20 10:12:21;;;;;;;;;;;27.40;64.70;;;;;;5112997;28;19930;-75
2022/08/20 10:14:47;;;;;;;;;;;27.40;64.70;;;;;;5113903;28;19908;-75
2022/08/20 10:17:12;;;;;;;;;;;27.40;64.60;;;;;;5112844;28;19962;-75
2022/08/20 10:19:38;;;;;;;;;;;27.40;64.60;;;;;;5114084;28;19965;-74
2022/08/20 10:22:04;;;;;;;;;;;27.50;64.70;;;;;;5114142;28;19915;-75
2022/08/20 10:24:29;;;;;;;;;;;27.60;64.70;;;;;;5114431;28;19953;-75
2022/08/20 10:26:56;;;;;;;;;;;27.60;64.60;;;;;;5114224;28;19908;-75
2022/08/20 10:29:21;;;;;;;;;;;27.70;64.50;;;;;;5113798;28;20346;-75
2022/08/20 10:31:47;;;;;;;;;;;27.80;64.40;;;;;;5113579;28;19907;-75
2022/08/20 10:34:12;;;;;;;;;;;27.80;64.30;;;;;;5113687;28;19911;-75
2022/08/20 10:36:40;;;;;;;;;;;27.80;64.20;;;;;;5113999;28;20346;-75
2022/08/20 10:39:05;;;;;;;;;;;27.90;64.10;;;;;;5113900;28;19919;-75
2022/08/20 10:41:31;;;;;;;;;;;27.90;64.10;;;;;;5113897;28;20265;-75
2022/08/20 10:43:56;;;;;;;;;;;28.00;64.00;;;;;;5112658;28;20002;-76
2022/08/20 10:46:22;;;;;;;;;;;28.10;63.90;;;;;;5113777;28;19966;-75
2022/08/20 10:48:48;;;;;;;;;;;28.10;63.90;;;;;;5115429;28;19953;-76
2022/08/20 10:51:13;;;;;;;;;;;28.10;63.70;;;;;;5117542;28;20369;-74
2022/08/20 10:53:39;;;;;;;;;;;28.10;63.70;;;;;;5117612;28;19915;-75
2022/08/20 10:56:04;;;;;;;;;;;28.10;63.70;;;;;;5117174;28;19916;-75
2022/08/20 10:58:30;;;;;;;;;;;28.20;63.70;;;;;;5115718;28;19916;-75
2022/08/20 11:00:55;;;;;;;;;;;28.20;63.70;;;;;;5117606;28;19912;-75
2022/08/20 11:03:21;;;;;;;;;;;28.20;63.70;;;;;;5117032;28;19953;-77
2022/08/20 11:05:47;;;;;;;;;;;28.30;63.60;;;;;;5117331;28;20258;-74
2022/08/20 11:08:12;;;;;;;;;;;28.40;63.50;;;;;;5115858;28;20014;-75
2022/08/20 11:10:38;;;;;;;;;;;28.40;63.40;;;;;;5117797;28;20269;-75
2022/08/20 11:13:05;;;;;;;;;;;28.50;63.30;;;;;;5116865;28;20003;-75
2022/08/20 11:15:38;;;;;;;;;;;28.50;63.20;;;;;;5115772;28;19919;-75
2022/08/20 11:18:03;;;;;;;;;;;28.60;63.10;;;;;;5116961;28;19947;-75
2022/08/20 11:20:30;;;;;;;;;;;28.70;62.90;;;;;;5116349;28;19951;-75
2022/08/20 11:22:56;;;;;;;;;;;28.70;62.90;;;;;;5117509;28;20411;-75
2022/08/20 11:25:22;;;;;;;;;;;28.70;62.90;;;;;;5116776;28;20344;-75
2022/08/20 11:27:48;;;;;;;;;;;28.80;62.90;;;;;;5116278;28;19973;-75
2022/08/20 11:30:19;;;;;;;;;;;28.80;62.80;;;;;;5115166;28;19973;-76
2022/08/20 11:32:44;;;;;;;;;;;28.90;62.70;;;;;;5116764;28;19914;-75
2022/08/20 11:35:10;;;;;;;;;;;28.90;62.60;;;;;;5117090;28;19915;-75
2022/08/20 11:37:36;;;;;;;;;;;29.00;62.40;;;;;;5115177;28;20000;-74
2022/08/20 11:40:02;;;;;;;;;;;29.00;62.40;;;;;;5116611;28;19915;-75
2022/08/20 11:42:28;;;;;;;;;;;29.00;62.50;;;;;;5116710;28;19915;-77
2022/08/20 11:44:53;;;;;;;;;;;29.00;62.40;;;;;;5115124;28;19907;-75
2022/08/20 11:47:21;;;;;;;;;;;29.10;62.30;;;;;;5116254;28;19947;-75
2022/08/20 11:49:46;;;;;;;;;;;29.10;62.10;;;;;;5115228;28;19908;-74
2022/08/20 11:52:12;;;;;;;;;;;29.10;62.00;;;;;;5115062;28;19915;-74
2022/08/20 11:54:39;;;;;;;;;;;29.10;62.20;;;;;;5116091;28;20392;-76
2022/08/20 11:57:05;;;;;;;;;;;29.10;62.00;;;;;;5116248;28;19916;-76
2022/08/20 11:59:31;;;;;;;;;;;29.10;61.90;;;;;;5115876;28;19923;-75
2022/08/20 12:01:57;;;;;;;;;;;29.00;62.10;;;;;;5115663;28;19919;-75
2022/08/20 12:04:23;;;;;;;;;;;29.00;62.10;;;;;;5115959;28;19931;-74
2022/08/20 12:06:49;;;;;;;;;;;28.90;62.00;;;;;;5116073;28;20350;-75
2022/08/20 12:09:16;;;;;;;;;;;28.90;62.00;;;;;;5116127;28;19919;-76
2022/08/20 12:11:41;;;;;;;;;;;28.90;62.00;;;;;;5115836;28;20056;-75
2022/08/20 12:14:07;;;;;;;;;;;28.90;62.00;;;;;;5115716;28;19951;-75
2022/08/20 12:16:32;;;;;;;;;;;29.00;62.20;;;;;;5115346;28;19912;-75
2022/08/20 12:18:58;;;;;;;;;;;29.00;62.10;;;;;;5115794;28;20247;-75
2022/08/20 12:21:23;;;;;;;;;;;29.00;62.10;;;;;;5115957;28;20406;-75
2022/08/20 12:23:49;;;;;;;;;;;29.00;62.00;;;;;;5115839;28;19968;-76
2022/08/20 12:26:15;;;;;;;;;;;29.00;61.90;;;;;;5115762;28;19908;-75
2022/08/20 12:28:41;;;;;;;;;;;29.10;62.00;;;;;;5115138;28;19949;-75
2022/08/20 12:31:06;;;;;;;;;;;29.10;61.90;;;;;;5115330;28;19908;-75
2022/08/20 12:33:32;;;;;;;;;;;29.10;61.90;;;;;;5115526;28;19908;-75
2022/08/20 12:35:58;;;;;;;;;;;29.10;61.80;;;;;;5115832;28;20472;-75
2022/08/20 12:38:23;;;;;;;;;;;29.10;61.80;;;;;;5115395;28;19915;-75
2022/08/20 12:40:49;;;;;;;;;;;29.20;61.90;;;;;;5115523;28;19908;-76
2022/08/20 12:43:14;;;;;;;;;;;29.20;61.80;;;;;;5115389;28;20353;-75
2022/08/20 12:45:40;;;;;;;;;;;29.20;61.80;;;;;;5114916;28;19908;-75
2022/08/20 12:48:10;;;;;;;;;;;29.30;61.70;;;;;;5115134;28;19908;-75
2022/08/20 12:50:36;;;;;;;;;;;29.40;61.60;;;;;;5115304;28;19915;-75
2022/08/20 12:53:02;;;;;;;;;;;29.40;61.50;;;;;;5113819;28;19908;-73
2022/08/20 12:55:28;;;;;;;;;;;29.50;61.50;;;;;;5114903;27;20455;-75
2022/08/20 12:57:56;;;;;;;;;;;29.50;61.40;;;;;;5115007;28;19972;-76
2022/08/20 13:00:24;;;;;;;;;;;29.60;61.20;;;;;;5114855;28;19908;-76
2022/08/20 13:02:50;;;;;;;;;;;29.60;61.20;;;;;;5114645;28;19912;-74
2022/08/20 13:05:15;;;;;;;;;;;29.70;61.20;;;;;;5113477;28;20361;-75
2022/08/20 13:07:42;;;;;;;;;;;29.80;61.30;;;;;;5114697;27;19926;-76
2022/08/20 13:10:13;;;;;;;;;;;29.80;60.90;;;;;;5114897;28;19907;-75
2022/08/20 13:12:39;;;;;;;;;;;29.90;60.90;;;;;;5114891;28;19908;-75
2022/08/20 13:15:05;;;;;;;;;;;30.00;60.80;;;;;;5114933;28;19965;-76
2022/08/20 13:17:30;;;;;;;;;;;30.10;60.80;;;;;;5113095;28;19943;-75
2022/08/20 13:19:56;;;;;;;;;;;30.10;60.60;;;;;;5114567;28;19908;-75
2022/08/20 13:22:21;;;;;;;;;;;30.30;60.60;;;;;;5113203;28;19908;-76
2022/08/20 13:24:47;;;;;;;;;;;30.30;60.50;;;;;;5113257;28;19915;-75
2022/08/20 13:27:14;;;;;;;;;;;30.50;60.40;;;;;;5112922;28;19946;-75
2022/08/20 13:29:46;;;;;;;;;;;30.60;60.90;;;;;;5114593;28;19908;-74
2022/08/20 13:32:12;;;;;;;;;;;30.90;60.00;;;;;;5114983;28;19908;-75
2022/08/20 13:34:38;;;;;;;;;;;31.10;60.00;;;;;;5114558;28;19918;-75
2022/08/20 13:37:13;;;;;;;;;;;31.40;60.30;;;;;;5113989;27;19923;-75
2022/08/20 13:39:40;;;;;;;;;;;31.60;60.10;;;;;;5114302;27;19915;-76
2022/08/20 13:42:05;;;;;;;;;;;32.00;59.90;;;;;;5114910;28;19951;-75
2022/08/20 13:44:31;;;;;;;;;;;32.30;59.70;;;;;;5114327;28;19981;-75
2022/08/20 13:46:56;;;;;;;;;;;32.60;59.70;;;;;;5114434;28;19912;-75
2022/08/20 13:49:22;;;;;;;;;;;32.90;59.40;;;;;;5114540;27;19914;-75
2022/08/20 13:51:47;;;;;;;;;;;33.10;59.10;;;;;;5114293;28;20357;-75
2022/08/20 13:54:13;;;;;;;;;;;33.40;58.70;;;;;;5114086;28;19914;-75
2022/08/20 13:56:38;;;;;;;;;;;33.60;58.50;;;;;;5114019;28;19911;-74
2022/08/20 13:59:04;;;;;;;;;;;33.90;58.40;;;;;;5114144;28;20003;-75
2022/08/20 14:01:30;;;;;;;;;;;34.00;57.70;;;;;;5114275;28;19982;-76
2022/08/20 14:03:55;;;;;;;;;;;34.20;57.90;;;;;;5112666;28;19998;-75
2022/08/20 14:06:21;;;;;;;;;;;34.30;57.40;;;;;;5114045;28;19912;-76
2022/08/20 14:08:46;;;;;;;;;;;34.50;56.90;;;;;;5113688;28;19920;-75
2022/08/20 14:11:12;;;;;;;;;;;34.50;56.70;;;;;;5114230;28;19915;-74
2022/08/20 14:13:37;;;;;;;;;;;34.40;56.40;;;;;;5113966;28;19939;-75
2022/08/20 14:16:03;;;;;;;;;;;34.30;55.80;;;;;;5114041;28;19912;-76